createdAt,value
2019-04-20T00:00:48.313Z,10.18
2019-04-20T00:03:13.774Z,10.53
2019-04-20T00:05:43.422Z,11.22
2019-04-20T00:08:16.783Z,10.20
2019-04-20T00:10:51.360Z,10.60
2019-04-20T00:13:25.166Z,10.85
2019-04-20T00:15:42.954Z,11.48
2019-04-20T00:18:12.234Z,10.23
2019-04-20T00:20:43.838Z,10.58
2019-04-20T00:23:30.284Z,10.80
2019-04-20T00:26:17.287Z,10.55
2019-04-20T00:29:04.357Z,10.70
2019-04-20T00:31:26.920Z,10.55
2019-04-20T00:33:52.864Z,10.80
2019-04-20T00:36:10.188Z,10.85
2019-04-20T00:38:45.526Z,10.72
2019-04-20T00:41:12.034Z,11.03
2019-04-20T00:43:40.508Z,11.20
2019-04-20T00:46:18.388Z,10.75
2019-04-20T00:48:48.579Z,11.22
2019-04-20T00:51:32.785Z,11.20
2019-04-20T00:53:43.257Z,11.68
2019-04-20T00:56:09.876Z,12.23
2019-04-20T00:58:52.238Z,12.53
2019-04-20T01:01:31.033Z,12.43
2019-04-20T01:03:52.102Z,15.68
2019-04-20T01:06:28.823Z,12.90
2019-04-20T01:08:48.465Z,12.33
2019-04-20T01:11:26.991Z,11.80
2019-04-20T01:13:52.516Z,11.05
2019-04-20T01:16:25.702Z,11.03
2019-04-20T01:18:48.032Z,11.33
2019-04-20T01:21:20.338Z,11.25
2019-04-20T01:23:53.067Z,11.05
2019-04-20T01:26:20.515Z,11.43
2019-04-20T01:28:58.459Z,11.10
2019-04-20T01:31:28.434Z,11.53
2019-04-20T01:33:55.007Z,11.28
2019-04-20T01:36:36.792Z,10.58
2019-04-20T01:38:58.750Z,11.70
2019-04-20T01:41:16.468Z,11.78
2019-04-20T01:43:45.895Z,11.95
2019-04-20T01:46:18.954Z,11.83
2019-04-20T01:48:44.760Z,11.68
2019-04-20T01:51:21.194Z,11.40
2019-04-20T01:54:00.826Z,11.45
2019-04-20T01:56:27.496Z,10.82
2019-04-20T01:59:04.547Z,11.78
2019-04-20T02:01:27.484Z,11.30
2019-04-20T02:04:17.163Z,11.30
2019-04-20T02:06:47.177Z,11.70
2019-04-20T02:09:15.026Z,11.80
2019-04-20T02:11:44.792Z,12.18
2019-04-20T02:14:12.089Z,11.40
2019-04-20T02:16:46.040Z,12.03
2019-04-20T02:19:28.958Z,12.15
2019-04-20T02:21:55.932Z,11.63
2019-04-20T02:24:12.575Z,12.18
2019-04-20T02:26:40.989Z,12.10
2019-04-20T02:29:31.953Z,11.28
2019-04-20T02:32:19.743Z,12.33
2019-04-20T02:39:46.294Z,11.43
2019-04-20T02:42:28.231Z,11.65
2019-04-20T02:44:50.023Z,11.80
2019-04-20T02:49:51.690Z,11.88
2019-04-20T02:54:50.840Z,11.28
2019-04-20T02:57:33.344Z,11.03
2019-04-20T03:01:59.439Z,11.88
2019-04-20T03:04:28.083Z,11.60
2019-04-20T03:07:00.937Z,11.38
2019-04-20T03:09:36.898Z,12.10
2019-04-20T03:12:25.714Z,11.60
2019-04-20T03:14:26.512Z,11.18
2019-04-20T03:17:08.710Z,10.88
2019-04-20T03:19:28.827Z,11.05
2019-04-20T03:22:08.895Z,10.55
2019-04-20T03:24:41.133Z,10.82
2019-04-20T03:27:07.540Z,11.95
2019-04-20T03:29:40.846Z,11.05
2019-04-20T03:37:24.777Z,10.95
2019-04-20T03:39:40.452Z,11.70
2019-04-20T03:41:58.419Z,11.40
2019-04-20T03:44:29.658Z,11.65
2019-04-20T03:47:01.223Z,10.85
2019-04-20T03:49:52.792Z,10.72
2019-04-20T03:52:26.182Z,10.75
2019-04-20T03:55:10.520Z,10.40
2019-04-20T03:57:54.207Z,10.55
2019-04-20T04:00:22.046Z,10.03
2019-04-20T04:03:12.577Z,10.08
2019-04-20T04:05:33.966Z,10.20
2019-04-20T04:07:58.713Z,9.20
2019-04-20T04:10:31.677Z,9.25
2019-04-20T04:13:07.593Z,9.10
2019-04-20T04:15:42.773Z,8.80
2019-04-20T04:18:13.889Z,8.70
2019-04-20T04:20:44.432Z,9.03
2019-04-20T04:23:22.048Z,8.88
2019-04-20T04:25:57.994Z,9.20
2019-04-20T04:28:27.261Z,8.68
2019-04-20T04:30:59.932Z,8.38
2019-04-20T04:33:50.487Z,8.05
2019-04-20T04:35:51.529Z,8.80
2019-04-20T04:38:35.308Z,8.18
2019-04-20T04:41:01.953Z,8.58
2019-04-20T04:43:19.731Z,7.80
2019-04-20T04:45:37.037Z,8.35
2019-04-20T04:48:13.149Z,8.48
2019-04-20T04:50:44.642Z,8.05
2019-04-20T04:53:13.405Z,7.50
2019-04-20T04:55:45.817Z,7.50
2019-04-20T04:58:06.477Z,7.78
2019-04-20T05:00:36.470Z,7.30
2019-04-20T05:03:23.350Z,7.65
2019-04-20T05:05:58.900Z,8.10
2019-04-20T05:08:15.502Z,7.60
2019-04-20T05:10:39.250Z,8.03
2019-04-20T05:13:09.080Z,8.18
2019-04-20T05:15:53.910Z,7.83
2019-04-20T05:18:34.432Z,7.40
2019-04-20T05:21:00.301Z,7.92
2019-04-20T05:23:24.303Z,8.55
2019-04-20T05:26:11.620Z,8.43
2019-04-20T05:28:27.788Z,9.13
2019-04-20T05:30:53.750Z,9.35
2019-04-20T05:33:28.217Z,9.53
2019-04-20T05:36:05.652Z,9.53
2019-04-20T05:38:42.011Z,9.70
2019-04-20T05:41:08.867Z,9.70
2019-04-20T05:43:42.891Z,10.00
2019-04-20T05:46:18.200Z,9.45
2019-04-20T05:48:50.733Z,10.25
2019-04-20T05:51:21.239Z,10.38
2019-04-20T05:53:45.275Z,8.90
2019-04-20T05:56:18.187Z,8.98
2019-04-20T05:58:47.588Z,8.98
2019-04-20T06:01:20.208Z,9.03
2019-04-20T06:03:45.458Z,9.25
2019-04-20T06:06:13.867Z,9.10
2019-04-20T06:08:53.788Z,9.30
2019-04-20T06:11:22.034Z,8.88
2019-04-20T06:13:37.919Z,9.95
2019-04-20T06:16:18.622Z,9.88
2019-04-20T06:18:47.025Z,9.80
2019-04-20T06:21:31.272Z,10.20
2019-04-20T06:24:15.621Z,10.30
2019-04-20T06:26:55.285Z,10.28
2019-04-20T06:29:16.321Z,10.55
2019-04-20T06:31:45.480Z,9.78
2019-04-20T06:34:30.650Z,10.55
2019-04-20T06:42:07.107Z,9.95
2019-04-20T06:44:34.086Z,10.58
2019-04-20T06:47:00.826Z,10.00
2019-04-20T06:51:59.391Z,9.95
2019-04-20T06:54:16.426Z,10.13
2019-04-20T06:57:00.316Z,9.95
2019-04-20T06:59:36.386Z,9.48
2019-04-20T07:02:10.010Z,9.60
2019-04-20T07:04:42.207Z,8.83
2019-04-20T07:07:05.245Z,9.38
2019-04-20T07:09:39.876Z,9.60
2019-04-20T07:12:00.839Z,9.10
2019-04-20T07:14:17.621Z,8.98
2019-04-20T07:17:10.885Z,8.65
2019-04-20T07:19:28.679Z,9.50
2019-04-20T07:22:19.323Z,8.70
2019-04-20T07:24:48.867Z,9.00
2019-04-20T07:27:13.563Z,9.10
2019-04-20T07:29:49.109Z,8.63
2019-04-20T07:32:07.527Z,9.33
2019-04-20T07:34:47.567Z,8.65
2019-04-20T07:37:42.722Z,8.10
2019-04-20T07:39:48.276Z,8.00
2019-04-20T07:42:16.807Z,7.78
2019-04-20T07:44:48.782Z,8.13
2019-04-20T07:47:21.832Z,8.35
2019-04-20T07:49:40.388Z,8.20
2019-04-20T07:51:55.553Z,8.28
2019-04-20T07:54:58.405Z,8.00
2019-04-20T07:57:14.497Z,8.00
2019-04-20T07:59:36.698Z,8.30
2019-04-20T08:02:24.973Z,8.38
2019-04-20T08:04:55.074Z,7.85
2019-04-20T08:07:10.443Z,8.18
2019-04-20T08:09:47.839Z,7.33
2019-04-20T08:12:34.585Z,7.90
2019-04-20T08:15:05.131Z,7.67
2019-04-20T08:17:46.485Z,7.78
2019-04-20T08:19:58.118Z,8.00
2019-04-20T08:22:38.863Z,7.85
2019-04-20T08:24:55.215Z,7.62
2019-04-20T08:27:13.187Z,8.15
2019-04-20T08:29:59.051Z,8.00
2019-04-20T08:32:50.588Z,8.08
2019-04-20T08:35:33.443Z,8.13
2019-04-20T08:38:14.903Z,8.20
2019-04-20T08:40:36.216Z,8.75
2019-04-20T08:43:02.383Z,8.58
2019-04-20T08:45:38.610Z,8.45
2019-04-20T08:48:09.756Z,9.10
2019-04-20T08:50:27.194Z,9.03
2019-04-20T08:53:12.430Z,8.55
2019-04-20T08:55:23.377Z,8.63
2019-04-20T08:57:39.861Z,8.73
2019-04-20T09:00:11.064Z,9.03
2019-04-20T09:02:41.258Z,9.20
2019-04-20T09:05:24.886Z,8.78
2019-04-20T09:07:53.179Z,9.55
2019-04-20T09:10:34.326Z,9.43
2019-04-20T09:12:53.236Z,9.40
2019-04-20T09:15:10.552Z,10.50
2019-04-20T09:17:48.419Z,10.85
2019-04-20T09:20:22.885Z,9.53
2019-04-20T09:23:02.293Z,10.20
2019-04-20T09:25:50.890Z,11.12
2019-04-20T09:28:17.540Z,10.90
2019-04-20T09:30:57.213Z,11.12
2019-04-20T09:33:44.109Z,11.12
2019-04-20T09:36:15.472Z,10.78
2019-04-20T09:38:57.185Z,11.48
2019-04-20T09:41:45.228Z,11.15
2019-04-20T09:43:51.093Z,11.33
2019-04-20T09:46:20.016Z,11.75
2019-04-20T09:48:55.569Z,12.80
2019-04-20T09:51:37.692Z,11.90
2019-04-20T09:54:02.900Z,12.28
2019-04-20T09:56:32.405Z,11.80
2019-04-20T09:59:08.233Z,11.85
2019-04-20T10:01:30.419Z,12.25
2019-04-20T10:03:50.149Z,11.93
2019-04-20T10:06:23.074Z,12.05
2019-04-20T10:08:52.940Z,12.05
2019-04-20T10:11:19.404Z,12.23
2019-04-20T10:13:48.172Z,11.28
2019-04-20T10:16:17.638Z,11.20
2019-04-20T10:18:51.616Z,12.35
2019-04-20T10:21:16.307Z,11.43
2019-04-20T10:23:44.932Z,10.58
2019-04-20T10:26:14.387Z,10.88
2019-04-20T10:28:43.602Z,10.80
2019-04-20T10:31:12.739Z,10.82
2019-04-20T10:33:41.755Z,10.98
2019-04-20T10:36:12.037Z,10.65
2019-04-20T10:38:40.299Z,10.93
2019-04-20T10:41:16.232Z,10.80
2019-04-20T10:43:38.798Z,10.20
2019-04-20T10:46:07.092Z,10.75
2019-04-20T10:48:41.355Z,11.12
2019-04-20T10:51:05.396Z,10.10
2019-04-20T10:53:33.681Z,11.25
2019-04-20T10:56:03.328Z,10.98
2019-04-20T10:58:32.035Z,10.35
2019-04-20T11:01:01.686Z,10.82
2019-04-20T11:03:30.314Z,10.75
2019-04-20T11:05:58.628Z,10.68
2019-04-20T11:08:26.950Z,10.23
2019-04-20T11:11:07.326Z,10.88
2019-04-20T11:13:25.586Z,11.08
2019-04-20T11:15:54.723Z,10.70
2019-04-20T11:18:23.413Z,11.48
2019-04-20T11:20:51.684Z,10.50
2019-04-20T11:23:20.347Z,10.85
2019-04-20T11:25:48.754Z,11.68
2019-04-20T11:28:17.068Z,11.20
2019-04-20T11:30:46.096Z,10.98
2019-04-20T11:33:14.582Z,11.43
2019-04-20T11:35:45.184Z,10.32
2019-04-20T11:38:15.443Z,11.53
2019-04-20T11:40:43.211Z,10.50
2019-04-20T11:43:11.568Z,11.38
2019-04-20T11:45:40.560Z,11.80
2019-04-20T11:48:09.611Z,10.43
2019-04-20T11:50:38.182Z,11.93
2019-04-20T11:53:06.443Z,12.18
2019-04-20T11:55:36.164Z,11.43
2019-04-20T11:58:05.898Z,10.53
2019-04-20T12:01:01.239Z,10.82
2019-04-20T12:03:31.516Z,11.85
2019-04-20T12:05:57.823Z,11.75
2019-04-20T12:08:24.985Z,11.75
2019-04-20T12:10:57.741Z,11.95
2019-04-20T12:13:24.848Z,11.73
2019-04-20T12:15:53.867Z,11.28
2019-04-20T12:18:23.348Z,11.40
2019-04-20T12:20:52.614Z,9.08
2019-04-20T12:23:22.319Z,9.53
2019-04-20T12:25:52.234Z,9.90
2019-04-20T12:28:21.857Z,8.80
2019-04-20T12:30:51.542Z,9.28
2019-04-20T12:33:20.426Z,9.23
2019-04-20T12:35:49.992Z,9.60
2019-04-20T12:38:19.110Z,8.63
2019-04-20T12:40:48.325Z,9.65
2019-04-20T12:43:17.326Z,9.25
2019-04-20T12:45:45.760Z,9.38
2019-04-20T12:48:15.509Z,9.85
2019-04-20T12:50:44.007Z,9.20
2019-04-20T12:53:12.850Z,9.33
2019-04-20T12:55:41.475Z,9.68
2019-04-20T12:58:10.536Z,9.95
2019-04-20T13:00:49.819Z,9.68
2019-04-20T13:03:19.400Z,9.95
2019-04-20T13:05:48.131Z,10.25
2019-04-20T13:08:23.146Z,10.53
2019-04-20T13:10:58.251Z,9.80
2019-04-20T13:13:34.540Z,10.50
2019-04-20T13:16:08.303Z,9.95
2019-04-20T13:18:39.233Z,10.32
2019-04-20T13:21:09.182Z,10.48
2019-04-20T13:23:37.595Z,10.53
2019-04-20T13:26:08.705Z,10.13
2019-04-20T13:28:37.089Z,15.48
2019-04-20T13:31:06.111Z,10.50
2019-04-20T13:33:37.135Z,10.60
2019-04-20T13:36:05.916Z,10.63
2019-04-20T13:38:34.609Z,10.10
2019-04-20T13:41:04.109Z,10.32
2019-04-20T13:43:32.565Z,10.55
2019-04-20T13:46:00.898Z,15.20
2019-04-20T13:48:29.215Z,10.13
2019-04-20T13:50:58.256Z,9.93
2019-04-20T13:53:27.507Z,9.58
2019-04-20T13:55:56.131Z,9.38
2019-04-20T13:58:41.646Z,10.40
2019-04-20T14:01:12.571Z,10.18
2019-04-20T14:03:41.044Z,29.30
2019-04-20T14:06:09.319Z,10.23
2019-04-20T14:08:39.085Z,9.75
2019-04-20T14:11:07.676Z,9.88
2019-04-20T14:13:41.997Z,9.68
2019-04-20T14:16:07.656Z,19.20
2019-04-20T14:18:37.395Z,9.95
2019-04-20T14:21:08.006Z,10.82
2019-04-20T14:23:37.066Z,9.63
2019-04-20T14:26:05.438Z,10.25
2019-04-20T14:28:33.704Z,15.90
2019-04-20T14:31:02.042Z,10.20
2019-04-20T14:33:30.761Z,9.95
2019-04-20T14:35:59.191Z,10.63
2019-04-20T14:38:28.538Z,10.23
2019-04-20T14:40:58.152Z,10.28
2019-04-20T14:43:26.842Z,9.83
2019-04-20T14:45:56.688Z,10.08
2019-04-20T14:48:25.033Z,9.53
2019-04-20T14:50:53.888Z,9.93
2019-04-20T14:53:23.272Z,9.88
2019-04-20T14:55:51.795Z,9.53
2019-04-20T14:58:42.137Z,9.93
2019-04-20T15:07:48.678Z,9.35
2019-04-20T15:10:18.633Z,9.03
2019-04-20T15:12:52.601Z,9.00
2019-04-20T15:15:17.103Z,10.00
2019-04-20T15:17:51.349Z,9.33
2019-04-20T15:20:21.526Z,8.95
2019-04-20T15:22:51.646Z,9.15
2019-04-20T15:25:21.250Z,8.90
2019-04-20T15:27:50.127Z,8.78
2019-04-20T15:30:20.374Z,8.60
2019-04-20T15:32:49.275Z,9.70
2019-04-20T15:35:19.736Z,7.83
2019-04-20T15:37:49.078Z,8.08
2019-04-20T15:40:17.695Z,7.67
2019-04-20T15:42:56.184Z,8.23
2019-04-20T15:45:15.982Z,7.85
2019-04-20T15:47:44.258Z,7.87
2019-04-20T15:50:13.794Z,6.85
2019-04-20T15:52:45.647Z,7.28
2019-04-20T15:55:24.082Z,8.03
2019-04-20T15:57:42.634Z,7.60
2019-04-20T16:00:11.075Z,7.65
2019-04-20T16:02:51.143Z,7.35
2019-04-20T16:05:28.269Z,8.08
2019-04-20T16:08:01.990Z,7.75
2019-04-20T16:10:28.641Z,7.50
2019-04-20T16:13:11.828Z,7.05
2019-04-20T16:15:27.553Z,7.78
2019-04-20T16:17:56.822Z,7.05
2019-04-20T16:20:27.139Z,7.75
2019-04-20T16:22:56.451Z,7.12
2019-04-20T16:25:27.630Z,6.80
2019-04-20T16:27:56.153Z,7.00
2019-04-20T16:30:25.408Z,7.10
2019-04-20T16:32:54.648Z,6.30
2019-04-20T16:35:24.473Z,6.47
2019-04-20T16:37:53.031Z,7.90
2019-04-20T16:40:21.361Z,7.35
2019-04-20T16:42:50.202Z,6.67
2019-04-20T16:45:19.157Z,7.10
2019-04-20T16:47:48.203Z,6.70
2019-04-20T16:50:17.092Z,6.67
2019-04-20T16:52:46.544Z,7.58
2019-04-20T16:55:15.135Z,8.50
2019-04-20T16:57:46.667Z,7.97
2019-04-20T17:00:13.758Z,7.20
2019-04-20T17:02:42.416Z,8.50
2019-04-20T17:05:11.317Z,7.25
2019-04-20T17:07:42.689Z,6.55
2019-04-20T17:10:11.928Z,7.47
2019-04-20T17:12:41.899Z,7.47
2019-04-20T17:15:11.645Z,8.48
2019-04-20T17:17:40.369Z,10.98
2019-04-20T17:20:09.263Z,6.78
2019-04-20T17:22:37.639Z,8.05
2019-04-20T17:25:08.286Z,6.70
2019-04-20T17:27:51.272Z,5.95
2019-04-20T17:30:25.536Z,6.75
2019-04-20T17:32:55.780Z,6.03
2019-04-20T17:35:37.030Z,5.53
2019-04-20T17:37:54.076Z,5.50
2019-04-20T17:40:41.909Z,5.85
2019-04-20T17:43:02.646Z,5.22
2019-04-20T17:45:33.410Z,4.50
2019-04-20T17:48:08.580Z,5.03
2019-04-20T17:50:41.626Z,4.35
2019-04-20T17:53:06.103Z,4.10
2019-04-20T17:55:36.921Z,4.92
2019-04-20T17:57:57.517Z,4.30
2019-04-20T18:00:28.998Z,4.60
2019-04-20T18:03:17.562Z,4.33
2019-04-20T18:05:58.366Z,4.35
2019-04-20T18:08:27.249Z,5.10
2019-04-20T18:10:45.664Z,4.30
2019-04-20T18:13:12.117Z,4.30
2019-04-20T18:15:51.613Z,4.00
2019-04-20T18:18:23.666Z,4.20
2019-04-20T18:20:43.382Z,4.28
2019-04-20T18:23:12.907Z,4.08
2019-04-20T18:26:04.451Z,4.53
2019-04-20T18:28:27.542Z,4.40
2019-04-20T18:31:05.311Z,3.98
2019-04-20T18:33:35.222Z,4.37
2019-04-20T18:36:02.977Z,3.92
2019-04-20T18:38:39.376Z,4.40
2019-04-20T18:41:07.352Z,4.22
2019-04-20T18:43:32.636Z,4.20
2019-04-20T18:46:20.331Z,4.12
2019-04-20T18:48:48.538Z,4.45
2019-04-20T18:51:01.803Z,3.83
2019-04-20T18:53:37.434Z,4.22
2019-04-20T18:56:02.733Z,4.17
2019-04-20T18:58:31.218Z,5.47
2019-04-20T19:01:01.145Z,6.65
2019-04-20T19:03:38.104Z,6.17
2019-04-20T19:06:00.164Z,7.30
2019-04-20T19:08:36.418Z,9.60
2019-04-20T19:11:04.103Z,11.48
2019-04-20T19:13:50.819Z,12.68
2019-04-20T19:16:34.648Z,12.43
2019-04-20T19:19:08.882Z,15.18
2019-04-20T19:21:27.462Z,16.57
2019-04-20T19:24:04.056Z,16.25
2019-04-20T19:26:27.305Z,14.43
2019-04-20T19:28:59.388Z,12.93
2019-04-20T19:31:42.695Z,12.70
2019-04-20T19:34:16.806Z,12.00
2019-04-20T19:36:33.518Z,11.88
2019-04-20T19:39:12.140Z,11.60
2019-04-20T19:41:39.728Z,10.75
2019-04-20T19:44:12.578Z,9.98
2019-04-20T19:49:07.993Z,8.78
2019-04-20T19:51:46.814Z,10.75
2019-04-20T19:54:22.691Z,12.63
2019-04-20T19:56:41.415Z,13.45
2019-04-20T19:59:09.577Z,13.72
2019-04-20T20:01:27.578Z,12.85
2019-04-20T20:04:00.260Z,13.05
2019-04-20T20:06:32.506Z,12.33
2019-04-20T20:09:03.073Z,13.28
2019-04-20T20:11:31.942Z,23.98
2019-04-20T20:13:58.610Z,30.85
2019-04-20T20:16:31.159Z,28.50
2019-04-20T20:19:05.848Z,25.35
2019-04-20T20:21:38.574Z,20.62
2019-04-20T20:23:56.473Z,16.42
2019-04-20T20:26:33.643Z,15.75
2019-04-20T20:29:08.179Z,16.77
2019-04-20T20:31:37.769Z,15.55
2019-04-20T20:34:08.495Z,14.95
2019-04-20T20:36:35.800Z,13.35
2019-04-20T20:39:04.663Z,13.22
2019-04-20T20:41:30.015Z,12.47
2019-04-20T20:44:03.758Z,11.30
2019-04-20T20:46:34.887Z,8.63
2019-04-20T20:49:09.395Z,7.95
2019-04-20T20:52:02.893Z,9.00
2019-04-20T20:54:04.525Z,8.28
2019-04-20T20:56:30.959Z,8.85
2019-04-20T20:59:06.729Z,9.20
2019-04-20T21:01:29.194Z,10.13
2019-04-20T21:03:56.725Z,9.28
2019-04-20T21:06:26.528Z,9.15
2019-04-20T21:08:56.613Z,8.90
2019-04-20T21:11:29.453Z,9.55
2019-04-20T21:13:56.218Z,8.90
2019-04-20T21:16:29.195Z,8.95
2019-04-20T21:19:15.989Z,8.18
2019-04-20T21:21:37.084Z,8.90
2019-04-20T21:24:06.738Z,7.60
2019-04-20T21:26:35.668Z,7.72
2019-04-20T21:29:00.125Z,8.25
2019-04-20T21:31:29.679Z,7.72
2019-04-20T21:34:01.932Z,7.55
2019-04-20T21:36:31.357Z,7.28
2019-04-20T21:38:58.530Z,6.92
2019-04-20T21:41:27.862Z,6.40
2019-04-20T21:43:58.062Z,6.25
2019-04-20T21:46:31.919Z,6.85
2019-04-20T21:49:11.932Z,6.58
2019-04-20T21:51:36.992Z,6.53
2019-04-20T21:53:58.736Z,6.80
2019-04-20T21:56:28.083Z,5.75
2019-04-20T21:59:00.757Z,6.35
2019-04-20T22:01:34.624Z,6.78
2019-04-20T22:03:56.548Z,6.55
2019-04-20T22:06:24.807Z,5.80
2019-04-20T22:08:59.870Z,6.28
2019-04-20T22:11:24.061Z,7.12
2019-04-20T22:13:54.435Z,6.65
2019-04-20T22:16:25.565Z,7.33
2019-04-20T22:19:10.501Z,7.62
2019-04-20T22:21:31.392Z,7.30
2019-04-20T22:24:06.268Z,7.58
2019-04-20T22:26:30.759Z,7.50
2019-04-20T22:28:54.057Z,7.08
2019-04-20T22:31:22.695Z,6.62
2019-04-20T22:33:52.248Z,6.67
2019-04-20T22:36:26.031Z,7.20
2019-04-20T22:39:11.734Z,7.03
2019-04-20T22:41:47.428Z,6.90
2019-04-20T22:44:18.412Z,7.08
2019-04-20T22:46:44.146Z,6.92
2019-04-20T22:49:30.813Z,7.70
2019-04-20T22:51:53.138Z,6.60
2019-04-20T22:54:27.894Z,7.40
2019-04-20T22:56:55.105Z,6.35
2019-04-20T22:59:16.493Z,6.10
2019-04-20T23:01:48.513Z,5.50
2019-04-20T23:04:12.836Z,5.47
2019-04-20T23:06:47.740Z,5.33
2019-04-20T23:09:14.671Z,5.80
2019-04-20T23:11:42.241Z,5.50
2019-04-20T23:14:10.980Z,6.10
2019-04-20T23:16:43.844Z,5.12
2019-04-20T23:19:10.117Z,5.25
2019-04-20T23:21:40.081Z,4.70
2019-04-20T23:24:11.233Z,4.58
2019-04-20T23:26:42.148Z,4.90
2019-04-20T23:29:09.217Z,4.70
2019-04-20T23:31:41.342Z,5.05
2019-04-20T23:34:15.386Z,4.25
2019-04-20T23:36:42.356Z,4.30
2019-04-20T23:39:08.634Z,4.70
2019-04-20T23:41:37.711Z,4.47
2019-04-20T23:44:15.187Z,4.40
2019-04-20T23:46:43.300Z,4.30
2019-04-20T23:49:27.832Z,4.03
2019-04-20T23:52:09.757Z,4.00
2019-04-20T23:54:27.495Z,3.80
2019-04-20T23:56:53.581Z,4.50
2019-04-20T23:59:30.785Z,4.47
